Time;durP1;ratioP1;P1;durP2;ratioP2;P2;SDS_P1;SDS_P2;PMS_P1;PMS_P2;Temp;Humidity;BMP_temperature;BMP_pressure;BME280_temperature;BME280_humidity;BME280_pressure;Samples;Min_cycle;Max_cycle;Signal;HPM_P1;HPM_P2
2021/07/11 06:02:36;;;;;;;8.48;7.50;;;;;;;20.54;80.26;100647.44;1733548;81;25487;-68
2021/07/11 06:05:04;;;;;;;8.88;7.50;;;;;;;20.76;79.86;100649.97;1723503;81;27309;-68
2021/07/11 06:07:31;;;;;;;8.75;7.42;;;;;;;20.93;78.79;100660.23;1715631;80;25457;-68
2021/07/11 06:09:59;;;;;;;8.38;7.40;;;;;;;21.01;77.99;100649.52;1729020;81;26171;-67
2021/07/11 06:12:26;;;;;;;12.05;10.15;;;;;;;21.06;77.51;100654.14;1737576;81;26015;-68
2021/07/11 06:14:54;;;;;;;7.92;7.22;;;;;;;21.16;77.27;100651.30;1721220;81;25830;-68
2021/07/11 06:17:21;;;;;;;9.83;6.83;;;;;;;21.25;76.41;100654.59;1730446;81;29586;-68
2021/07/11 06:19:49;;;;;;;6.53;6.00;;;;;;;21.33;76.13;100647.80;1731509;81;25858;-68
2021/07/11 06:22:16;;;;;;;7.45;6.67;;;;;;;21.37;75.61;100645.30;1688897;83;25842;-67
2021/07/11 06:24:43;;;;;;;6.60;6.10;;;;;;;21.43;75.16;100641.63;1707743;82;25925;-68
2021/07/11 06:27:09;;;;;;;6.15;5.65;;;;;;;21.51;74.67;100641.95;1740059;81;26430;-68
2021/07/11 06:29:36;;;;;;;6.58;5.97;;;;;;;21.60;75.04;100637.53;1740678;81;27273;-68
2021/07/11 06:32:04;;;;;;;9.35;6.08;;;;;;;21.76;74.83;100630.42;1734361;81;25507;-68
2021/07/11 06:34:30;;;;;;;6.10;5.60;;;;;;;21.92;74.43;100635.12;1730159;80;25800;-68
2021/07/11 06:36:57;;;;;;;6.28;5.67;;;;;;;22.08;73.74;100631.34;1730001;81;26789;-68
2021/07/11 06:39:23;;;;;;;6.28;5.35;;;;;;;22.22;73.69;100628.73;1726777;81;25862;-68
2021/07/11 06:41:50;;;;;;;6.58;5.87;;;;;;;22.40;72.84;100628.89;1733853;80;27314;-68
2021/07/11 06:44:16;;;;;;;5.78;5.17;;;;;;;22.54;72.51;100634.53;1727101;80;25829;-69
2021/07/11 06:46:43;;;;;;;7.22;5.40;;;;;;;22.69;72.40;100631.27;1733195;81;25826;-68
2021/07/11 06:49:09;;;;;;;6.30;5.70;;;;;;;22.84;72.02;100630.78;1739370;81;25917;-68
2021/07/11 06:51:35;;;;;;;6.22;5.37;;;;;;;23.02;71.44;100636.98;1736847;81;25935;-68
2021/07/11 06:54:02;;;;;;;7.33;4.90;;;;;;;23.18;70.93;100618.78;1731476;81;27950;-67
2021/07/11 06:56:29;;;;;;;6.05;5.37;;;;;;;23.37;70.65;100620.43;1736728;81;25894;-67
2021/07/11 06:58:55;;;;;;;5.33;4.92;;;;;;;23.59;70.40;100630.36;1733492;81;25816;-68
2021/07/11 07:01:22;;;;;;;6.03;5.42;;;;;;;23.80;69.83;100630.21;1736746;79;26100;-68
2021/07/11 07:03:48;;;;;;;5.47;5.08;;;;;;;23.95;69.12;100624.94;1735808;80;26197;-69
2021/07/11 07:06:15;;;;;;;5.15;4.65;;;;;;;24.06;68.72;100619.45;1739491;81;27304;-68
2021/07/11 07:08:41;;;;;;;4.45;4.03;;;;;;;24.24;68.14;100615.30;1733018;81;25911;-68
2021/07/11 07:11:08;;;;;;;4.40;3.70;;;;;;;24.43;67.95;100620.44;1723475;81;25866;-67
2021/07/11 07:13:34;;;;;;;4.50;3.67;;;;;;;24.63;66.81;100620.64;1733674;81;25897;-67
2021/07/11 07:16:01;;;;;;;4.47;4.08;;;;;;;24.77;66.62;100622.80;1732029;80;25457;-68
2021/07/11 07:18:27;;;;;;;5.33;4.20;;;;;;;24.98;66.41;100617.01;1735539;81;27316;-68
2021/07/11 07:20:55;;;;;;;4.12;3.83;;;;;;;25.19;65.67;100613.37;1727464;81;25970;-67
2021/07/11 07:23:22;;;;;;;4.23;3.83;;;;;;;25.38;64.54;100612.73;1728085;81;25911;-68
2021/07/11 07:25:49;;;;;;;6.42;4.53;;;;;;;25.58;64.45;100618.56;1726264;80;26510;-68
2021/07/11 07:28:15;;;;;;;4.45;3.42;;;;;;;25.65;63.25;100618.52;1740067;81;25449;-68
2021/07/11 07:30:41;;;;;;;4.12;3.72;;;;;;;25.72;63.22;100614.31;1734720;81;27298;-67
2021/07/11 07:33:09;;;;;;;3.85;3.55;;;;;;;25.91;62.87;100611.03;1737956;81;25443;-68
2021/07/11 07:35:36;;;;;;;3.95;3.33;;;;;;;26.11;62.04;100608.34;1733745;81;25819;-67
2021/07/11 07:38:02;;;;;;;3.30;3.10;;;;;;;26.25;61.38;100617.31;1730664;81;25894;-73
2021/07/11 07:40:29;;;;;;;3.37;3.02;;;;;;;26.50;61.53;100625.25;1694901;81;26381;-72
2021/07/11 07:42:55;;;;;;;4.47;3.65;;;;;;;26.79;60.95;100617.45;1741248;81;27645;-73
2021/07/11 07:45:22;;;;;;;3.75;3.42;;;;;;;26.93;60.17;100620.06;1709565;82;27060;-74
2021/07/11 07:47:50;;;;;;;3.98;3.40;;;;;;;27.15;59.85;100621.20;1726810;81;25481;-73
2021/07/11 07:50:17;;;;;;;4.05;3.55;;;;;;;27.42;59.66;100626.84;1727216;81;25921;-74
2021/07/11 07:52:43;;;;;;;3.27;3.08;;;;;;;27.65;58.49;100627.53;1741688;80;25902;-74
2021/07/11 07:55:11;;;;;;;4.83;3.55;;;;;;;27.77;58.14;100627.57;1742126;80;27965;-73
2021/07/11 07:57:37;;;;;;;3.20;2.62;;;;;;;27.82;57.00;100624.32;1727575;81;25823;-73
2021/07/11 08:00:12;;;;;;;3.42;2.80;;;;;;;27.74;56.31;100625.02;1719386;80;25455;-74
2021/07/11 08:02:40;;;;;;;3.05;2.85;;;;;;;27.88;56.05;100629.57;1699376;81;26765;-74
2021/07/11 08:05:08;;;;;;;3.35;3.08;;;;;;;28.02;56.28;100623.64;1731568;81;31673;-74
2021/07/11 08:07:35;;;;;;;3.37;3.08;;;;;;;28.25;55.86;100622.88;1714034;81;27305;-74
2021/07/11 08:10:05;;;;;;;3.83;2.80;;;;;;;28.46;55.56;100614.16;1742372;81;25906;-73
2021/07/11 08:12:32;;;;;;;4.65;2.55;;;;;;;28.80;55.36;100622.91;1678335;84;25429;-73
2021/07/11 08:14:59;;;;;;;2.90;2.70;;;;;;;29.08;54.31;100622.77;1733175;81;26557;-73
2021/07/11 08:17:25;;;;;;;2.65;2.45;;;;;;;29.34;54.08;100622.48;1722838;80;25933;-73
2021/07/11 08:19:52;;;;;;;3.25;2.67;;;;;;;29.64;53.27;100616.44;1693040;82;27523;-74
2021/07/11 08:22:18;;;;;;;5.20;4.67;;;;;;;29.86;51.46;100613.97;1710468;82;25792;-73
2021/07/11 08:24:44;;;;;;;2.72;2.40;;;;;;;29.94;51.14;100623.13;1671315;84;25876;-73
2021/07/11 08:27:11;;;;;;;3.17;2.20;;;;;;;30.13;50.50;100617.90;1668788;82;26415;-73
2021/07/11 08:29:39;;;;;;;2.08;1.98;;;;;;;30.26;49.57;100615.98;1700871;82;25816;-69
2021/07/11 08:32:07;;;;;;;2.40;2.20;;;;;;;30.46;49.26;100609.52;1736812;80;27355;-69
2021/07/11 08:34:33;;;;;;;2.98;2.15;;;;;;;30.67;48.88;100612.36;1733164;81;25779;-74
2021/07/11 08:37:00;;;;;;;2.60;2.30;;;;;;;30.88;48.68;100613.14;1728083;81;25900;-75
2021/07/11 08:39:28;;;;;;;3.58;2.60;;;;;;;31.12;48.20;100617.72;1730181;81;26031;-74
2021/07/11 08:41:57;;;;;;;2.37;2.27;;;;;;;31.27;47.69;100616.84;1735095;80;25961;-74
2021/07/11 08:44:25;;;;;;;2.33;2.12;;;;;;;31.43;47.43;100620.78;1727855;81;27340;-75
2021/07/11 08:46:53;;;;;;;2.30;2.10;;;;;;;31.56;46.46;100617.41;1723598;81;25495;-75
2021/07/11 08:49:22;;;;;;;2.10;2.00;;;;;;;31.61;45.81;100614.06;1746885;80;25863;-74
2021/07/11 08:51:59;;;;;;;2.77;1.90;;;;;;;31.67;46.05;100617.09;1733828;81;25999;-75
2021/07/11 08:54:26;;;;;;;3.10;2.10;;;;;;;31.91;45.85;100614.73;1720948;81;27126;-74
2021/07/11 08:57:06;;;;;;;1.97;1.80;;;;;;;32.09;45.26;100619.75;1681354;84;27953;-74
2021/07/11 08:59:33;;;;;;;2.67;1.90;;;;;;;32.19;44.58;100602.45;1709869;80;25829;-76
2021/07/11 09:01:59;;;;;;;2.10;2.00;;;;;;;32.17;44.61;100611.29;1719959;81;25955;-74
2021/07/11 09:04:44;;;;;;;30.80;29.15;;;;;;;32.34;44.44;100606.33;1708674;81;26541;-74
2021/07/11 09:07:21;;;;;;;3.77;2.27;;;;;;;32.58;44.56;100606.68;1656849;85;26192;-75
2021/07/11 09:09:55;;;;;;;2.42;2.00;;;;;;;32.92;44.02;100607.89;1731217;80;27376;-75
2021/07/11 09:12:23;;;;;;;3.20;2.10;;;;;;;33.01;43.53;100602.97;1730708;80;25793;-75
2021/07/11 09:14:54;;;;;;;3.12;2.20;;;;;;;32.91;42.60;100600.75;1727199;80;25487;-75
2021/07/11 09:17:21;;;;;;;3.17;2.05;;;;;;;32.68;42.35;100596.37;1695921;82;25915;-77
2021/07/11 09:19:51;;;;;;;55.45;52.75;;;;;;;32.67;42.32;100598.22;1690206;83;25875;-76
2021/07/11 09:22:24;;;;;;;40.03;37.85;;;;;;;32.76;42.53;100592.70;1729587;81;27296;-75
2021/07/11 09:24:56;;;;;;;3.58;2.02;;;;;;;33.00;41.99;100588.81;1731887;81;25942;-78
2021/07/11 09:27:27;;;;;;;2.25;2.15;;;;;;;33.11;41.69;100587.77;1733237;81;25783;-78
2021/07/11 09:30:07;;;;;;;2.05;1.95;;;;;;;32.98;40.79;100587.70;1702037;82;26103;-75
2021/07/11 09:32:36;;;;;;;2.20;2.10;;;;;;;33.06;41.22;100580.59;1720231;81;25472;-78
2021/07/11 09:35:10;;;;;;;2.22;2.02;;;;;;;33.29;41.27;100579.34;1717679;80;27340;-76
2021/07/11 09:37:40;;;;;;;1.90;1.80;;;;;;;33.42;41.05;100580.00;1728833;81;25488;-77
2021/07/11 09:40:09;;;;;;;3.55;2.20;;;;;;;33.52;40.45;100573.05;1705872;82;25824;-77
2021/07/11 09:42:41;;;;;;;4.40;1.92;;;;;;;33.55;40.36;100575.70;1666494;84;25942;-78
2021/07/11 09:45:22;;;;;;;2.12;1.92;;;;;;;33.67;40.38;100576.23;1724381;81;25898;-78
2021/07/11 09:48:04;;;;;;;2.20;2.00;;;;;;;33.85;40.16;100580.33;1732597;80;27316;-80
2021/07/11 09:50:35;;;;;;;4.70;2.05;;;;;;;33.98;39.71;100573.97;1728440;81;25851;-78
2021/07/11 09:53:02;;;;;;;2.77;2.27;;;;;;;34.10;39.06;100572.27;1723783;81;25484;-77
2021/07/11 09:55:32;;;;;;;2.20;2.00;;;;;;;34.15;39.03;100572.28;1734647;81;25961;-78
2021/07/11 09:58:05;;;;;;;2.30;2.10;;;;;;;34.22;38.63;100578.42;1707141;82;25721;-78
2021/07/11 10:00:36;;;;;;;4.55;2.30;;;;;;;34.11;38.42;100580.86;1703690;81;27524;-78
2021/07/11 10:03:13;;;;;;;20.88;19.82;;;;;;;33.93;38.08;100576.62;1696711;81;25821;-78
2021/07/11 10:05:43;;;;;;;2.35;2.15;;;;;;;33.98;38.34;100581.61;1702765;81;25712;-79
2021/07/11 10:08:12;;;;;;;2.30;2.10;;;;;;;34.17;38.56;100574.00;1695043;82;26067;-80
2021/07/11 10:10:41;;;;;;;2.00;1.90;;;;;;;34.36;38.42;100571.41;1694538;83;25578;-77
2021/07/11 10:13:09;;;;;;;1.85;1.75;;;;;;;34.63;37.95;100586.66;1702135;82;27394;-79
2021/07/11 10:15:38;;;;;;;2.95;2.20;;;;;;;34.48;37.68;100592.14;1701003;81;25852;-79
2021/07/11 10:18:09;;;;;;;2.30;2.10;;;;;;;34.51;37.79;100591.19;1705717;81;25877;-70
2021/07/11 10:20:39;;;;;;;2.52;2.30;;;;;;;34.55;37.39;100571.40;1689214;83;26033;-69
2021/07/11 10:23:08;;;;;;;5.28;2.20;;;;;;;34.65;37.06;100570.14;1706872;82;25392;-68
2021/07/11 10:25:36;;;;;;;3.30;2.75;;;;;;;34.65;37.06;100570.14;1701842;82;28123;-69
2021/07/11 10:28:09;;;;;;;;;;;;;;;34.81;37.17;100573.89;1698243;83;25887;-69
2021/07/11 10:30:40;;;;;;;3.35;2.20;;;;;;;35.13;37.12;100565.38;1696464;82;25829;-70
2021/07/11 10:33:17;;;;;;;3.85;2.17;;;;;;;35.13;37.12;100565.38;1714301;81;25922;-70
2021/07/11 10:36:00;;;;;;;2.10;2.00;;;;;;;35.24;36.45;100569.88;1702326;82;25408;-69
2021/07/11 10:38:40;;;;;;;12.60;11.75;;;;;;;35.38;36.42;100574.67;1713436;81;27902;-69
2021/07/11 10:41:21;;;;;;;1.98;1.75;;;;;;;35.39;35.51;100584.67;1726548;81;25940;-70
2021/07/11 10:44:10;;;;;;;52.93;50.33;;;;;;;35.39;35.51;100584.67;1741254;80;25742;-69
2021/07/11 10:46:58;;;;;;;53.15;50.65;;;;;;;35.11;35.58;100561.63;1742523;80;25902;-68
2021/07/11 10:49:30;;;;;;;1.90;1.80;;;;;;;35.11;35.14;100559.42;1739658;81;25847;-69
2021/07/11 10:52:09;;;;;;;2.20;2.00;;;;;;;35.26;35.34;100561.74;1735124;80;27548;-82
2021/07/11 10:54:54;;;;;;;1.82;1.72;;;;;;;35.32;34.70;100559.85;1729935;80;25878;-81
2021/07/11 10:57:31;;;;;;;2.00;1.90;;;;;;;35.33;34.57;100566.25;1726406;81;25834;-79
2021/07/11 11:00:15;;;;;;;3.22;1.92;;;;;;;35.31;35.08;100563.91;1736170;81;25914;-82
2021/07/11 11:02:45;;;;;;;1.80;1.70;;;;;;;35.46;35.13;100562.59;1725361;81;25875;-82
2021/07/11 11:05:24;;;;;;;2.05;1.82;;;;;;;35.63;35.46;100565.02;1732249;81;27896;-82
2021/07/11 11:07:56;;;;;;;2.85;2.37;;;;;;;35.84;35.48;100556.97;1714652;81;25768;-81
2021/07/11 11:10:35;;;;;;;2.60;2.10;;;;;;;35.92;34.76;100555.19;1726622;80;25702;-80
2021/07/11 11:13:19;;;;;;;1.87;1.77;;;;;;;36.08;35.19;100560.38;1729418;80;25840;-81
2021/07/11 11:16:02;;;;;;;2.75;1.95;;;;;;;36.38;35.28;100568.30;1728469;81;26005;-68
2021/07/11 11:18:43;;;;;;;3.10;2.72;;;;;;;36.54;34.81;100559.23;1722948;81;27164;-69
2021/07/11 11:21:16;;;;;;;2.08;1.80;;;;;;;36.68;33.72;100537.36;1730675;81;25514;-78
2021/07/11 11:23:46;;;;;;;2.62;1.50;;;;;;;36.55;33.72;100556.58;1729752;81;25456;-79
2021/07/11 11:26:28;;;;;;;1.60;1.50;;;;;;;36.59;33.47;100552.93;1746293;80;25937;-79
2021/07/11 11:28:57;;;;;;;1.62;1.55;;;;;;;36.69;33.75;100535.31;1743027;81;25571;-80
2021/07/11 11:31:28;;;;;;;3.42;1.70;;;;;;;36.91;33.79;100539.94;1737293;80;27503;-69
2021/07/11 11:34:07;;;;;;;2.45;1.47;;;;;;;36.93;32.83;100533.82;1735186;81;25581;-68
2021/07/11 11:36:49;;;;;;;2.87;1.57;;;;;;;36.82;32.35;100538.01;1733746;80;25802;-69
2021/07/11 11:39:28;;;;;;;1.70;1.60;;;;;;;36.68;31.98;100535.95;1710912;81;25915;-69
2021/07/11 11:41:54;;;;;;;2.10;2.00;;;;;;;36.67;32.23;100527.98;1738781;80;25822;-69
2021/07/11 11:44:26;;;;;;;1.80;1.70;;;;;;;36.67;32.32;100527.98;1736123;80;27909;-69
2021/07/11 11:46:56;;;;;;;1.70;1.60;;;;;;;36.54;32.65;100531.87;1724996;81;25793;-70
2021/07/11 11:49:27;;;;;;;3.00;1.50;;;;;;;36.59;33.11;100530.39;1736546;81;25915;-70
2021/07/11 11:51:57;;;;;;;2.15;1.57;;;;;;;36.76;32.88;100526.49;1739274;81;25773;-79
2021/07/11 11:54:37;;;;;;;1.67;1.57;;;;;;;36.85;32.39;100534.86;1740362;80;25777;-79
2021/07/11 11:57:06;;;;;;;1.50;1.40;;;;;;;36.94;31.94;100527.70;1733589;80;27392;-79
2021/07/11 11:59:32;;;;;;;3.50;1.52;;;;;;;37.03;31.66;100527.45;1747173;80;25805;-69
2021/07/11 12:02:02;;;;;;;1.80;1.70;;;;;;;37.07;31.58;100526.61;1738672;81;25483;-70
2021/07/11 12:04:30;;;;;;;4.22;1.82;;;;;;;37.07;32.04;100525.20;1728865;81;26162;-70
2021/07/11 12:07:00;;;;;;;1.57;1.47;;;;;;;37.21;31.62;100530.08;1740825;81;25799;-69
2021/07/11 12:09:31;;;;;;;5.28;2.00;;;;;;;37.26;31.33;100522.34;1736118;81;27312;-70
2021/07/11 12:12:07;;;;;;;2.22;1.82;;;;;;;37.26;31.60;100521.56;1735490;80;25931;-68
2021/07/11 12:14:38;;;;;;;1.72;1.62;;;;;;;36.99;31.04;100518.55;1732173;81;25906;-79
2021/07/11 12:17:15;;;;;;;2.67;1.62;;;;;;;36.67;31.00;100518.89;1727175;80;25910;-79
2021/07/11 12:19:53;;;;;;;2.73;1.63;;;;;;;36.48;31.74;100511.27;1707625;82;25543;-69
2021/07/11 12:22:33;;;;;;;2.22;1.75;;;;;;;36.49;32.09;100514.23;1729604;81;28301;-80
2021/07/11 12:25:18;;;;;;;1.57;1.47;;;;;;;36.62;32.17;100507.66;1734008;81;25894;-80
2021/07/11 12:27:48;;;;;;;1.80;1.70;;;;;;;36.72;31.59;100505.56;1717821;81;25532;-81
2021/07/11 12:30:18;;;;;;;2.22;1.85;;;;;;;36.63;31.68;100501.42;1664760;83;26023;-80
2021/07/11 12:32:52;;;;;;;3.25;1.70;;;;;;;36.56;31.70;100501.17;1699571;82;25861;-69
2021/07/11 12:35:22;;;;;;;2.52;2.37;;;;;;;36.43;31.73;100501.45;1723884;81;28049;-69
2021/07/11 12:37:59;;;;;;;2.10;2.00;;;;;;;36.42;31.74;100494.28;1725347;81;25807;-69
2021/07/11 12:40:29;;;;;;;1.70;1.60;;;;;;;36.40;31.65;100494.60;1722514;81;25849;-69
2021/07/11 12:43:21;;;;;;;2.40;1.82;;;;;;;36.39;31.71;100488.20;1721639;82;25926;-70
2021/07/11 12:46:09;;;;;;;1.75;1.65;;;;;;;36.41;31.60;100487.72;1725582;81;25819;-69
2021/07/11 12:48:47;;;;;;;;;;;;;;;36.23;31.22;100488.66;1722011;81;27390;-69
2021/07/11 12:51:32;;;;;;;52.95;50.45;;;;;;;36.17;31.50;100491.34;1725162;81;25837;-69
2021/07/11 12:54:12;;;;;;;54.55;51.50;;;;;;;36.20;32.31;100481.14;1723229;81;25861;-68
2021/07/11 12:57:02;;;;;;;54.63;51.98;;;;;;;36.22;32.16;100481.49;1717692;81;26039;-69
2021/07/11 12:59:35;;;;;;;51.65;49.25;;;;;;;36.16;31.74;100479.93;1711598;82;25794;-68
2021/07/11 13:02:24;;;;;;;1.87;1.72;;;;;;;36.11;32.01;100489.69;1676160;84;27417;-68
2021/07/11 13:05:10;;;;;;;3.70;2.08;;;;;;;36.20;32.10;100489.59;1722706;81;25715;-69
2021/07/11 13:07:37;;;;;;;2.65;2.05;;;;;;;36.20;31.79;100488.19;1724445;81;25673;-69
2021/07/11 13:10:11;;;;;;;2.25;1.70;;;;;;;36.13;32.21;100482.94;1703075;80;26773;-69
2021/07/11 13:12:35;;;;;;;1.70;1.60;;;;;;;36.22;32.62;100480.08;1713831;81;25483;-69
2021/07/11 13:15:09;;;;;;;2.30;2.08;;;;;;;36.35;32.70;100476.34;1714430;81;27303;-81
2021/07/11 13:17:35;;;;;;;2.15;1.65;;;;;;;36.39;32.60;100468.48;1735957;81;26153;-81
2021/07/11 13:20:04;;;;;;;2.10;2.00;;;;;;;36.27;32.38;100473.14;1736840;80;25817;-70
2021/07/11 13:22:31;;;;;;;4.62;2.15;;;;;;;36.15;32.19;100480.41;1733446;80;26001;-70
2021/07/11 13:24:59;;;;;;;3.62;2.00;;;;;;;35.85;32.53;100483.17;1722821;81;25411;-69
2021/07/11 13:27:26;;;;;;;2.08;1.98;;;;;;;35.77;32.86;100483.39;1714780;80;27556;-70
2021/07/11 13:29:53;;;;;;;2.00;1.90;;;;;;;35.87;32.92;100482.05;1745197;80;25545;-69
2021/07/11 13:32:21;;;;;;;3.77;2.15;;;;;;;35.80;32.38;100483.84;1728032;81;25738;-69
2021/07/11 13:34:48;;;;;;;2.37;1.75;;;;;;;35.66;32.37;100475.47;1733110;80;26555;-70
2021/07/11 13:37:17;;;;;;;2.63;2.43;;;;;;;35.69;32.73;100469.66;1707141;83;25856;-68
2021/07/11 13:39:44;;;;;;;2.67;2.47;;;;;;;35.71;32.88;100470.59;1660120;84;27342;-69
2021/07/11 13:42:11;;;;;;;3.42;2.20;;;;;;;35.64;32.98;100471.73;1739609;81;25451;-69
2021/07/11 13:44:38;;;;;;;2.33;2.22;;;;;;;35.45;33.06;100473.09;1737076;80;25817;-82
2021/07/11 13:47:05;;;;;;;2.00;1.90;;;;;;;35.34;33.36;100468.01;1719055;81;26504;-80
2021/07/11 13:49:31;;;;;;;2.22;2.10;;;;;;;35.25;32.64;100470.25;1707280;81;25917;-79
2021/07/11 13:51:58;;;;;;;2.47;2.27;;;;;;;35.01;33.16;100466.58;1727684;80;27443;-80
2021/07/11 13:54:25;;;;;;;2.12;2.02;;;;;;;34.83;33.64;100456.97;1725317;81;25750;-81
2021/07/11 13:56:51;;;;;;;8.28;2.42;;;;;;;34.82;34.16;100458.84;1721120;81;25469;-80
2021/07/11 13:59:18;;;;;;;2.45;2.35;;;;;;;34.89;34.16;100455.69;1730604;81;25985;-82
2021/07/11 14:01:45;;;;;;;2.30;2.20;;;;;;;34.99;34.32;100450.19;1730833;81;25884;-81
2021/07/11 14:04:11;;;;;;;2.62;2.40;;;;;;;35.09;34.71;100450.32;1729111;81;28024;-82
2021/07/11 14:06:38;;;;;;;2.58;2.37;;;;;;;35.09;34.71;100450.32;1729314;80;25712;-82
2021/07/11 14:09:05;;;;;;;2.77;2.58;;;;;;;35.19;34.29;100445.41;1719464;81;26232;-82
2021/07/11 14:11:31;;;;;;;3.42;2.45;;;;;;;35.22;34.08;100441.68;1705336;81;26488;-82
2021/07/11 14:13:58;;;;;;;2.98;2.58;;;;;;;35.24;33.93;100439.80;1729132;81;25886;-82
2021/07/11 14:16:24;;;;;;;4.53;2.52;;;;;;;35.23;33.94;100446.66;1718443;81;27296;-82
2021/07/11 14:18:51;;;;;;;4.05;2.80;;;;;;;35.22;34.06;100462.77;1724344;81;26643;-82
2021/07/11 14:21:17;;;;;;;2.77;2.58;;;;;;;34.94;34.13;100444.61;1724533;81;25555;-83
2021/07/11 14:23:43;;;;;;;3.95;2.98;;;;;;;34.75;34.05;100444.52;1735909;81;26641;-82
2021/07/11 14:26:10;;;;;;;3.17;2.98;;;;;;;34.50;34.41;100438.02;1733516;81;26517;-81
2021/07/11 14:28:36;;;;;;;2.52;2.35;;;;;;;34.31;34.72;100436.48;1732751;79;27304;-83
2021/07/11 14:31:03;;;;;;;3.12;2.90;;;;;;;34.21;34.96;100436.52;1733164;80;25776;-83
2021/07/11 14:33:30;;;;;;;2.83;2.62;;;;;;;33.99;35.38;100429.65;1737094;81;25900;-81
2021/07/11 14:35:56;;;;;;;2.70;2.60;;;;;;;33.94;35.69;100434.48;1731831;81;26509;-83
2021/07/11 14:38:23;;;;;;;2.75;2.55;;;;;;;33.89;36.01;100423.12;1733829;81;25472;-84
2021/07/11 14:40:50;;;;;;;2.90;2.62;;;;;;;33.88;36.40;100430.73;1738982;81;27326;-83
2021/07/11 14:43:17;;;;;;;4.28;2.90;;;;;;;34.01;36.76;100446.79;1740038;81;25796;-82
2021/07/11 14:45:43;;;;;;;2.58;2.47;;;;;;;33.94;36.66;100427.47;1699260;83;25895;-84
2021/07/11 14:48:09;;;;;;;3.98;2.90;;;;;;;34.00;36.40;100421.40;1713111;81;26010;-84
2021/07/11 14:50:36;;;;;;;3.52;2.90;;;;;;;34.03;36.50;100428.86;1711770;82;25860;-84
2021/07/11 14:53:03;;;;;;;3.30;3.02;;;;;;;33.98;36.23;100421.70;1687917;82;27392;-85
2021/07/11 14:55:29;;;;;;;3.80;3.50;;;;;;;33.84;35.97;100419.67;1667320;84;25908;-85
2021/07/11 14:57:55;;;;;;;6.03;3.58;;;;;;;33.63;36.53;100422.77;1707929;82;25772;-84
2021/07/11 15:00:22;;;;;;;8.95;8.10;;;;;;;33.41;36.88;100421.48;1722790;80;25823;-77
2021/07/11 15:02:49;;;;;;;4.58;3.85;;;;;;;33.25;37.38;100425.96;1694450;81;25452;-83
2021/07/11 15:05:15;;;;;;;3.87;3.58;;;;;;;33.02;37.61;100414.05;1694793;81;27329;-83
2021/07/11 15:07:42;;;;;;;4.05;3.58;;;;;;;32.80;38.04;100410.55;1725099;80;25916;-83
2021/07/11 15:10:10;;;;;;;4.12;3.52;;;;;;;32.64;38.18;100401.14;1725519;81;25493;-84
2021/07/11 15:12:37;;;;;;;3.85;3.62;;;;;;;32.57;38.64;100393.77;1725515;80;32659;-84
2021/07/11 15:15:06;;;;;;;4.33;3.80;;;;;;;32.54;38.55;100392.52;1728252;80;25369;-83
2021/07/11 15:17:33;;;;;;;4.28;3.98;;;;;;;32.51;38.71;100391.40;1730973;81;27430;-83
2021/07/11 15:20:01;;;;;;;7.75;4.05;;;;;;;32.52;39.18;100389.37;1702300;81;25889;-84
2021/07/11 15:22:28;;;;;;;4.00;3.60;;;;;;;32.42;38.80;100391.36;1712415;80;25776;-83
2021/07/11 15:24:54;;;;;;;6.87;4.33;;;;;;;32.28;38.90;100385.66;1717189;80;25981;-85
2021/07/11 15:27:21;;;;;;;4.17;3.83;;;;;;;32.13;39.27;100383.23;1723544;81;25418;-84
2021/07/11 15:29:49;;;;;;;3.67;3.37;;;;;;;31.94;39.31;100381.70;1725032;80;27283;-82
2021/07/11 15:32:17;;;;;;;4.62;3.58;;;;;;;31.77;39.75;100373.31;1695974;82;25994;-82
2021/07/11 15:34:46;;;;;;;4.07;3.70;;;;;;;31.69;40.00;100376.20;1728337;81;25472;-84
2021/07/11 15:37:13;;;;;;;5.85;5.15;;;;;;;31.64;40.36;100369.96;1723055;81;26043;-83
2021/07/11 15:39:39;;;;;;;4.70;4.33;;;;;;;31.64;40.84;100374.16;1740389;80;25436;-68
2021/07/11 15:42:06;;;;;;;7.25;4.22;;;;;;;31.63;41.16;100364.82;1746873;80;28001;-68
2021/07/11 15:44:33;;;;;;;4.53;3.92;;;;;;;31.60;41.05;100365.13;1737765;80;25820;-69
2021/07/11 15:47:00;;;;;;;4.25;3.95;;;;;;;31.60;41.17;100361.53;1739588;80;25808;-68
2021/07/11 15:49:26;;;;;;;4.35;4.05;;;;;;;31.59;41.52;100362.78;1740420;81;25985;-69
2021/07/11 15:51:52;;;;;;;4.37;3.98;;;;;;;31.57;41.41;100359.03;1726562;81;25846;-68
2021/07/11 15:54:19;;;;;;;5.03;3.90;;;;;;;31.53;41.27;100366.75;1737983;81;27838;-69
2021/07/11 15:56:45;;;;;;;6.28;4.20;;;;;;;31.50;41.39;100365.45;1727623;80;25735;-84
2021/07/11 15:59:12;;;;;;;4.95;4.22;;;;;;;31.49;41.69;100361.88;1704312;82;25497;-83
2021/07/11 16:01:38;;;;;;;4.55;4.15;;;;;;;31.52;42.06;100358.22;1720139;80;26007;-83
2021/07/11 16:04:04;;;;;;;7.10;4.45;;;;;;;31.50;41.75;100362.66;1714069;81;25454;-69
2021/07/11 16:06:32;;;;;;;4.97;4.65;;;;;;;31.38;41.59;100367.05;1714715;81;27826;-69
2021/07/11 16:08:59;;;;;;;5.65;4.42;;;;;;;31.27;42.03;100370.98;1721890;81;25860;-69
2021/07/11 16:11:25;;;;;;;4.83;4.42;;;;;;;31.13;42.08;100369.30;1718681;81;25541;-69
2021/07/11 16:13:52;;;;;;;5.35;4.25;;;;;;;30.99;42.27;100371.92;1725978;81;26454;-69
2021/07/11 16:16:18;;;;;;;28.42;26.82;;;;;;;30.90;42.40;100369.78;1722910;81;25774;-68
2021/07/11 16:18:45;;;;;;;5.67;5.17;;;;;;;30.83;42.52;100372.18;1715588;81;27293;-68
2021/07/11 16:21:11;;;;;;;5.60;5.10;;;;;;;30.75;42.82;100370.87;1704612;82;25611;-68
2021/07/11 16:23:37;;;;;;;5.53;5.03;;;;;;;30.69;42.96;100380.39;1675517;84;25841;-69
2021/07/11 16:26:04;;;;;;;6.42;4.55;;;;;;;30.59;43.09;100373.75;1734150;81;25962;-69
2021/07/11 16:28:30;;;;;;;5.72;5.15;;;;;;;30.46;43.24;100368.15;1723774;81;25425;-68
2021/07/11 16:30:57;;;;;;;6.50;5.28;;;;;;;30.34;43.44;100364.88;1730708;81;27290;-69
2021/07/11 16:33:23;;;;;;;5.78;4.85;;;;;;;30.25;43.84;100360.55;1724687;81;25784;-68
2021/07/11 16:35:51;;;;;;;6.03;5.42;;;;;;;30.13;44.11;100366.27;1716256;81;25465;-68
2021/07/11 16:38:17;;;;;;;6.55;5.85;;;;;;;30.04;44.50;100370.95;1674408;84;25934;-68
2021/07/11 16:40:44;;;;;;;6.70;6.10;;;;;;;29.93;44.62;100372.03;1732821;81;25811;-68
2021/07/11 16:43:11;;;;;;;8.65;5.03;;;;;;;29.82;44.77;100365.96;1720465;82;27351;-68
2021/07/11 16:45:37;;;;;;;5.95;5.40;;;;;;;29.71;44.94;100367.62;1724178;81;25544;-68
2021/07/11 16:48:04;;;;;;;7.28;6.05;;;;;;;29.62;45.32;100364.05;1697399;81;25922;-68
2021/07/11 16:50:31;;;;;;;5.62;5.12;;;;;;;29.52;45.75;100365.73;1698235;82;26032;-68
2021/07/11 16:52:57;;;;;;;6.87;5.35;;;;;;;29.41;45.84;100357.05;1719626;81;25884;-69
2021/07/11 16:55:23;;;;;;;13.55;12.45;;;;;;;29.31;46.00;100356.71;1737602;81;27337;-69
2021/07/11 16:57:50;;;;;;;6.08;5.50;;;;;;;29.23;46.42;100359.50;1725850;81;25488;-68
2021/07/11 17:00:19;;;;;;;6.17;5.67;;;;;;;29.15;46.71;100355.29;1729804;81;25842;-68
2021/07/11 17:02:46;;;;;;;70.78;66.92;;;;;;;29.10;47.06;100352.44;1723891;80;25965;-69
2021/07/11 17:05:14;;;;;;;49.48;45.48;;;;;;;29.00;47.21;100346.53;1718412;80;25914;-69
2021/07/11 17:07:41;;;;;;;6.47;5.87;;;;;;;28.96;47.21;100353.58;1731560;81;27332;-69
2021/07/11 17:10:12;;;;;;;6.05;5.53;;;;;;;28.90;47.50;100353.91;1730200;80;25762;-69
2021/07/11 17:12:38;;;;;;;6.55;5.92;;;;;;;28.83;47.74;100349.29;1732417;80;25432;-69
2021/07/11 17:15:08;;;;;;;8.53;6.03;;;;;;;28.77;47.98;100358.59;1681763;83;26627;-69
2021/07/11 17:17:35;;;;;;;6.45;5.95;;;;;;;28.71;48.35;100357.52;1705842;82;25447;-69
2021/07/11 17:20:06;;;;;;;9.38;5.95;;;;;;;28.65;48.74;100367.00;1726762;81;27327;-69
2021/07/11 17:22:33;;;;;;;5.95;5.45;;;;;;;28.60;49.02;100375.24;1717725;80;25833;-69
2021/07/11 17:24:59;;;;;;;6.92;5.28;;;;;;;28.55;49.17;100379.92;1733354;80;25669;-70
2021/07/11 17:27:26;;;;;;;6.47;5.97;;;;;;;28.49;49.49;100386.59;1720781;81;26656;-69
2021/07/11 17:29:53;;;;;;;6.60;6.10;;;;;;;28.43;49.66;100385.52;1730861;81;25461;-69
2021/07/11 17:32:20;;;;;;;6.60;6.00;;;;;;;28.38;49.86;100388.80;1727244;81;28075;-69
2021/07/11 17:34:47;;;;;;;6.40;5.90;;;;;;;28.31;50.31;100393.13;1731912;81;25828;-69
2021/07/11 17:37:13;;;;;;;7.40;6.58;;;;;;;28.23;50.67;100389.72;1730637;80;25481;-69